Richland, GA (31825)

7:07 PM EST on December 28, 2014 (GMT -0500)
RAWS FORT BENNING GA US | Change Station
CLOSE
Current Station
Personal Weather Station
Location: Fort Benning, GA
Elevation: 466 ft
Nearby Weather Stations

Elev 466 ft 32.40 °N, 84.87 °W | Updated 57 minutes ago

Rain
Rain
66 °F
Feels Like 66 °F
N
3
Wind Variable Wind from WNW
Gusts 4.0 mph

Today
High -- | Low -- °F
--% Chance of Precip.
Yesterday
High -- | Low -- °F
Precip. -- in
7:38 AM 5:42 PM
First Quarter, 52% visible
Pressure 30.03 in
Visibility 0.5 miles
Clouds Clear
Dew Point 65 °F
Humidity 97%
Rainfall 0.95 in
Snow Depth Not available.
UV 0 out of 12
Pollen .40 out of 12
Air Quality Not available.
Flu Activity Not available.
METAR KLSF 282358Z AUTO 00000KT 1/2SM R15/1400FT FG CLR 17/17 A3002 RMK AO2 VIS 1/2V1 3/4 SLP168 60000 T01720170 10207 20172 58001 $

More Conditions Fewer Conditions

Pressure 30.03 in
Visibility 0.5 miles
Clouds Clear
Dew Point 65 °F
Humidity 97%
Rainfall 0.95 in
Snow Depth Not available.
UV 0 out of 12
Pollen .40 out of 12
Air Quality Not available.
Flu Activity Not available.
METAR KLSF 282358Z AUTO 00000KT 1/2SM R15/1400FT FG CLR 17/17 A3002 RMK AO2 VIS 1/2V1 3/4 SLP168 60000 T01720170 10207 20172 58001 $

More Conditions Fewer Conditions

10-Day Weather Forecast

Almanac

Astronomy

Dec. 28, 2014 Rise Set
Actual Time
Civil Twilight
Nautical Twilight
Astronomical Twilight
Moon
Length of Visible Light
Length of Day
Tomorrow will be .
, % of the Moon is Illuminated

Today's Extremes

State Highs State Lows

Community

WunderPhotos

Upload Photos

1,781,467 photos uploaded!

WunderBlogs® & News

Nearby

Air Quality

  Air Quality AQ Index Pollutant
Not available.

Snow Depth

Station Depth Elevation

Earthquake Activity

City Distance Mag. Time & Date
Minimum magnitude displayed is 2.5.

Coastal Water Temperatures

Place Temperature

Nearby Weather Stations